Time;durP1;ratioP1;P1;durP2;ratioP2;P2;SDS_P1;SDS_P2;PMS_P1;PMS_P2;Temp;Humidity;BMP_temperature;BMP_pressure;BME280_temperature;BME280_humidity;BME280_pressure;Samples;Min_cycle;Max_cycle;Signal;HPM_P1;HPM_P2
2021/03/07 00:00:27;;;;;;;17.13;9.40;;;-0.60;99.90;;;;;;5072122;28;20381;-53
2021/03/07 00:02:53;;;;;;;17.48;9.20;;;-0.60;99.90;;;;;;5090043;28;20591;-54
2021/03/07 00:05:20;;;;;;;16.40;9.10;;;1.00;99.90;;;;;;5088992;28;20867;-54
2021/03/07 00:07:47;;;;;;;19.40;9.90;;;1.50;99.90;;;;;;5090130;28;20462;-56
2021/03/07 00:10:14;;;;;;;15.85;8.98;;;-0.60;99.90;;;;;;5071972;28;20400;-54
2021/03/07 00:12:41;;;;;;;19.35;9.35;;;-0.60;99.90;;;;;;5089443;28;20507;-53
2021/03/07 00:15:09;;;;;;;15.60;9.05;;;-0.60;99.90;;;;;;5090312;28;20425;-54
2021/03/07 00:17:35;;;;;;;16.80;9.60;;;-0.70;99.90;;;;;;5088621;28;20394;-53
2021/03/07 00:20:01;;;;;;;15.73;8.90;;;-0.30;99.90;;;;;;5089328;28;20390;-53
2021/03/07 00:22:27;;;;;;;16.23;9.75;;;-0.60;99.90;;;;;;5071084;28;20386;-53
2021/03/07 00:24:53;;;;;;;17.63;8.88;;;-0.60;99.90;;;;;;5089646;28;20753;-54
2021/03/07 00:27:19;;;;;;;17.75;9.60;;;-0.50;99.90;;;;;;5088620;28;20760;-54
2021/03/07 00:29:45;;;;;;;15.73;9.25;;;1.80;99.90;;;;;;5089922;28;20392;-53
2021/03/07 00:32:10;;;;;;;17.15;9.40;;;-0.50;99.90;;;;;;5089664;28;20380;-53
2021/03/07 00:34:36;;;;;;;16.42;9.40;;;-0.60;99.90;;;;;;5089093;28;20465;-53
2021/03/07 00:37:02;;;;;;;17.27;9.48;;;-0.60;99.90;;;;;;5089540;28;20484;-53
2021/03/07 00:39:30;;;;;;;19.85;10.98;;;-0.60;99.90;;;;;;5088628;28;20390;-53
2021/03/07 00:41:59;;;;;;;17.30;9.90;;;1.60;99.90;;;;;;5090574;28;20390;-53
2021/03/07 00:44:25;;;;;;;18.10;9.73;;;-0.80;99.90;;;;;;5092546;28;20430;-54
2021/03/07 00:46:51;;;;;;;18.13;10.02;;;-0.90;99.90;;;;;;5093325;28;20428;-53
2021/03/07 00:49:26;;;;;;;19.88;9.90;;;-0.90;99.90;;;;;;5093347;28;20417;-53
2021/03/07 00:51:52;;;;;;;17.35;10.70;;;-0.90;99.90;;;;;;5075213;28;20390;-53
2021/03/07 00:54:17;;;;;;;18.17;10.10;;;-0.90;99.90;;;;;;5074665;28;20404;-54
2021/03/07 00:56:43;;;;;;;20.20;10.90;;;-0.50;99.90;;;;;;5092495;28;20422;-53
2021/03/07 00:59:10;;;;;;;18.33;10.80;;;-1.10;99.90;;;;;;5093357;28;20709;-54
2021/03/07 01:01:35;;;;;;;17.85;9.80;;;0.80;99.90;;;;;;5092767;28;20401;-54
2021/03/07 01:04:01;;;;;;;17.90;10.15;;;-1.20;99.90;;;;;;5093110;28;20374;-54
2021/03/07 01:06:27;;;;;;;17.67;9.77;;;1.00;99.90;;;;;;5092456;28;20378;-54
2021/03/07 01:08:53;;;;;;;17.40;9.80;;;-1.20;99.90;;;;;;5093398;28;20397;-54
2021/03/07 01:11:18;;;;;;;17.60;10.13;;;-1.30;99.90;;;;;;5092251;28;20378;-54
2021/03/07 01:13:44;;;;;;;16.35;8.85;;;-1.30;99.90;;;;;;5093035;28;20370;-53
2021/03/07 01:16:10;;;;;;;16.38;9.27;;;-1.30;99.90;;;;;;5092251;28;20413;-54
2021/03/07 01:18:36;;;;;;;13.68;8.15;;;-1.20;99.90;;;;;;5092091;28;21221;-53
2021/03/07 01:21:02;;;;;;;15.60;8.40;;;-1.10;99.90;;;;;;5092811;28;20470;-54
2021/03/07 01:23:31;;;;;;;16.00;8.23;;;-1.00;99.90;;;;;;5091751;28;20463;-53
2021/03/07 01:25:57;;;;;;;15.60;8.45;;;1.30;99.90;;;;;;5092945;28;20400;-54
2021/03/07 01:28:23;;;;;;;19.10;8.60;;;0.50;99.90;;;;;;5091860;28;20461;-54
2021/03/07 01:30:49;;;;;;;15.70;8.60;;;1.60;99.90;;;;;;5074267;28;20809;-53
2021/03/07 01:33:14;;;;;;;14.95;8.40;;;-0.80;99.90;;;;;;5092692;28;20465;-53
2021/03/07 01:35:40;;;;;;;15.10;8.40;;;1.00;99.90;;;;;;5091651;28;20410;-53
2021/03/07 01:38:07;;;;;;;16.30;8.85;;;-1.00;99.90;;;;;;5091040;28;20801;-53
2021/03/07 01:40:45;;;;;;;16.53;8.57;;;-1.20;99.90;;;;;;5091558;28;20438;-54
2021/03/07 01:43:11;;;;;;;14.45;8.20;;;-1.20;99.90;;;;;;5091427;28;20389;-54
2021/03/07 01:45:37;;;;;;;14.43;8.70;;;-1.20;99.90;;;;;;5072962;28;20390;-54
2021/03/07 01:48:06;;;;;;;16.13;8.93;;;-1.20;99.90;;;;;;5092309;28;20860;-54
2021/03/07 01:50:34;;;;;;;14.98;8.80;;;-1.20;99.90;;;;;;5089210;28;20394;-54
2021/03/07 01:53:01;;;;;;;15.27;8.73;;;-1.20;99.90;;;;;;5091769;28;20409;-54
2021/03/07 01:55:30;;;;;;;15.50;8.88;;;-1.30;99.90;;;;;;5089311;28;20422;-54
2021/03/07 01:58:17;;;;;;;14.18;8.90;;;-1.20;99.90;;;;;;5092219;28;20382;-54
2021/03/07 02:00:43;;;;;;;15.38;8.80;;;-1.10;99.90;;;;;;5090040;28;20418;-54
2021/03/07 02:03:09;;;;;;;17.75;9.77;;;-1.30;99.90;;;;;;5092113;28;20862;-54
2021/03/07 02:05:35;;;;;;;19.20;10.60;;;-1.30;99.90;;;;;;5089618;28;20883;-54
2021/03/07 02:08:01;;;;;;;18.63;10.40;;;-1.30;99.90;;;;;;5091739;28;20382;-54
2021/03/07 02:10:37;;;;;;;17.85;10.77;;;-1.20;99.90;;;;;;5089537;28;20475;-54
2021/03/07 02:13:10;;;;;;;18.73;10.93;;;0.80;99.90;;;;;;5091863;28;20380;-54
2021/03/07 02:15:38;;;;;;;17.48;10.77;;;-1.30;99.90;;;;;;5089732;28;20406;-54
2021/03/07 02:18:05;;;;;;;18.67;11.38;;;-1.40;99.90;;;;;;5091290;28;20462;-54
2021/03/07 02:20:34;;;;;;;18.83;10.88;;;-1.40;99.90;;;;;;5088749;28;20405;-54
2021/03/07 02:23:07;;;;;;;21.55;11.70;;;-0.30;99.90;;;;;;5091168;28;20503;-53
2021/03/07 02:25:34;;;;;;;20.03;11.03;;;-1.50;99.90;;;;;;5089599;28;20860;-54
2021/03/07 02:28:01;;;;;;;23.15;12.32;;;-1.60;99.90;;;;;;5091526;28;20388;-54
2021/03/07 02:30:28;;;;;;;18.85;11.18;;;-1.60;99.90;;;;;;5089302;28;20390;-54
2021/03/07 02:33:20;;;;;;;16.77;10.85;;;-1.60;99.90;;;;;;5091268;28;20461;-54
2021/03/07 02:35:53;;;;;;;18.25;10.38;;;-1.70;99.90;;;;;;5090235;28;20416;-53
2021/03/07 02:38:23;;;;;;;17.23;10.20;;;-1.60;99.90;;;;;;5090355;28;20403;-54
2021/03/07 02:40:52;;;;;;;20.23;10.90;;;-1.60;99.90;;;;;;5090312;28;20390;-53
2021/03/07 02:43:18;;;;;;;21.03;11.73;;;-1.60;99.90;;;;;;5090369;28;20374;-54
2021/03/07 02:45:46;;;;;;;18.65;10.50;;;-1.50;99.90;;;;;;5090256;28;20795;-54
2021/03/07 02:48:14;;;;;;;19.92;10.77;;;-1.40;99.90;;;;;;5072076;28;20467;-53
2021/03/07 02:50:41;;;;;;;18.27;10.70;;;-1.50;99.90;;;;;;5090063;28;20370;-54
2021/03/07 02:53:10;;;;;;;19.03;10.17;;;0.30;99.90;;;;;;5071288;28;20406;-54
2021/03/07 02:55:38;;;;;;;17.35;10.05;;;-1.40;99.90;;;;;;5090088;28;20425;-54
2021/03/07 02:58:08;;;;;;;17.70;9.60;;;-1.40;99.90;;;;;;5089677;28;20921;-54
2021/03/07 03:00:36;;;;;;;18.08;10.40;;;-1.40;99.90;;;;;;5089668;28;20747;-54
2021/03/07 03:03:08;;;;;;;22.27;11.10;;;-1.40;99.90;;;;;;5090921;28;20445;-54
2021/03/07 03:05:39;;;;;;;18.80;10.40;;;-1.30;99.90;;;;;;5088364;28;20501;-54
2021/03/07 03:08:06;;;;;;;15.23;10.00;;;-1.30;99.90;;;;;;5071201;28;20397;-53
2021/03/07 03:10:33;;;;;;;16.15;9.80;;;-1.20;99.90;;;;;;5089465;28;20370;-53
2021/03/07 03:13:02;;;;;;;17.05;10.07;;;-1.10;99.90;;;;;;5089427;28;20420;-53
2021/03/07 03:15:29;;;;;;;18.45;9.82;;;-1.20;99.90;;;;;;5089540;28;20420;-54
2021/03/07 03:17:56;;;;;;;18.20;10.90;;;-1.20;99.90;;;;;;5088880;28;20406;-53
2021/03/07 03:20:22;;;;;;;19.30;11.50;;;0.90;99.90;;;;;;5089827;28;20462;-53
2021/03/07 03:22:49;;;;;;;18.95;10.85;;;-1.30;99.90;;;;;;5090801;28;20370;-53
2021/03/07 03:25:15;;;;;;;16.95;10.40;;;-1.40;99.90;;;;;;5088734;28;20406;-53
2021/03/07 03:27:41;;;;;;;16.65;9.43;;;-1.40;99.90;;;;;;5089412;28;21031;-53
2021/03/07 03:30:18;;;;;;;15.50;9.35;;;-1.50;99.90;;;;;;5089099;28;20394;-53
2021/03/07 03:32:45;;;;;;;18.07;10.27;;;-1.50;99.90;;;;;;5088633;28;20485;-53
2021/03/07 03:35:13;;;;;;;16.38;10.25;;;-1.60;99.90;;;;;;5089791;28;20861;-53
2021/03/07 03:37:40;;;;;;;17.05;9.70;;;-1.60;99.90;;;;;;5088383;28;20883;-53
2021/03/07 03:40:09;;;;;;;17.52;10.55;;;-1.70;99.90;;;;;;5090125;28;20382;-53
2021/03/07 03:42:42;;;;;;;16.65;10.48;;;-1.70;99.90;;;;;;5089077;28;20379;-53
2021/03/07 03:45:10;;;;;;;18.87;11.27;;;-1.80;99.90;;;;;;5089367;28;20875;-53
2021/03/07 03:47:43;;;;;;;16.80;10.23;;;-1.90;99.90;;;;;;5088062;28;20394;-54
2021/03/07 03:50:11;;;;;;;17.27;10.57;;;-1.90;99.90;;;;;;5090096;28;20378;-54
2021/03/07 03:52:39;;;;;;;18.58;10.40;;;-1.10;99.90;;;;;;5089476;28;20370;-54
2021/03/07 03:55:14;;;;;;;17.60;10.32;;;-1.70;99.90;;;;;;5088223;28;20382;-54
2021/03/07 03:57:41;;;;;;;16.88;10.13;;;-1.60;99.90;;;;;;5089491;28;20417;-54
2021/03/07 04:00:13;;;;;;;19.25;10.45;;;-1.50;99.90;;;;;;5090087;28;20374;-54
2021/03/07 04:02:40;;;;;;;15.90;9.53;;;-1.40;99.90;;;;;;5087956;28;20386;-54
2021/03/07 04:05:08;;;;;;;17.73;9.83;;;-1.40;99.90;;;;;;5089000;28;20444;-54
2021/03/07 04:07:35;;;;;;;16.77;10.27;;;-1.40;99.90;;;;;;5088354;28;20437;-53
2021/03/07 04:10:03;;;;;;;17.27;9.80;;;-1.50;99.90;;;;;;5088666;28;20496;-54
2021/03/07 04:12:29;;;;;;;20.88;10.27;;;-1.50;99.90;;;;;;5089008;28;20386;-54
2021/03/07 04:14:56;;;;;;;17.42;9.27;;;-1.60;99.90;;;;;;5088829;28;20420;-54
2021/03/07 04:17:25;;;;;;;17.13;10.10;;;-1.60;99.90;;;;;;5091147;28;20394;-54
2021/03/07 04:19:52;;;;;;;17.92;10.30;;;-1.60;99.90;;;;;;5092962;28;20789;-54
2021/03/07 04:22:19;;;;;;;18.70;10.13;;;-1.60;99.90;;;;;;5093224;28;20490;-54
2021/03/07 04:24:46;;;;;;;18.63;10.48;;;-1.60;99.90;;;;;;5092820;28;20381;-54
2021/03/07 04:27:12;;;;;;;18.20;9.93;;;-0.70;99.90;;;;;;5092596;28;20871;-54
2021/03/07 04:29:38;;;;;;;19.55;10.52;;;-1.70;99.90;;;;;;5092399;28;20374;-55
2021/03/07 04:32:08;;;;;;;18.35;11.23;;;0.00;99.90;;;;;;5090733;28;20534;-54
2021/03/07 04:34:35;;;;;;;19.70;10.32;;;-1.70;99.90;;;;;;5091620;28;20991;-54
2021/03/07 04:37:02;;;;;;;19.07;9.83;;;-1.80;99.90;;;;;;5090879;28;20493;-54
2021/03/07 04:39:28;;;;;;;18.67;10.10;;;-1.90;99.90;;;;;;5083033;28;20432;-54
2021/03/07 04:41:54;;;;;;;15.02;8.70;;;-1.90;99.90;;;;;;5089782;28;20398;-54
2021/03/07 04:44:20;;;;;;;18.92;9.20;;;0.60;99.90;;;;;;5093652;28;20374;-54
2021/03/07 04:46:45;;;;;;;15.43;10.20;;;-1.90;99.90;;;;;;5091877;28;20389;-54
2021/03/07 04:49:11;;;;;;;19.43;11.00;;;-1.80;99.90;;;;;;5092461;28;20488;-54
2021/03/07 04:51:37;;;;;;;16.83;10.00;;;-1.70;99.90;;;;;;5091035;28;20544;-54
2021/03/07 04:54:03;;;;;;;16.52;9.32;;;-1.70;99.90;;;;;;5093067;28;20396;-54
2021/03/07 04:56:30;;;;;;;17.48;8.50;;;-1.70;99.90;;;;;;5074195;28;20425;-54
2021/03/07 04:58:56;;;;;;;16.33;9.10;;;-1.70;99.90;;;;;;5093078;28;20477;-54
2021/03/07 05:01:22;;;;;;;17.27;9.40;;;-1.80;99.90;;;;;;5092875;28;20401;-54
2021/03/07 05:03:48;;;;;;;14.55;9.25;;;-3.90;99.90;;;;;;5092388;28;20397;-54
2021/03/07 05:06:14;;;;;;;15.88;9.20;;;-1.90;99.90;;;;;;5093284;28;20374;-52
2021/03/07 05:08:40;;;;;;;17.30;9.40;;;-2.00;99.90;;;;;;5092361;28;20401;-54
2021/03/07 05:11:06;;;;;;;17.48;9.20;;;-2.00;99.90;;;;;;5093055;28;20378;-54
2021/03/07 05:13:32;;;;;;;17.55;8.82;;;-0.10;99.90;;;;;;5092378;28;20436;-54
2021/03/07 05:15:58;;;;;;;16.17;8.90;;;-2.00;99.90;;;;;;5092618;28;20405;-54
2021/03/07 05:18:23;;;;;;;14.45;8.45;;;-1.90;99.90;;;;;;5092580;28;20658;-54
2021/03/07 05:20:49;;;;;;;17.50;8.80;;;-1.90;99.90;;;;;;5092324;28;20386;-54
2021/03/07 05:23:15;;;;;;;19.10;9.93;;;-1.90;99.90;;;;;;5092811;28;20402;-54
2021/03/07 05:25:41;;;;;;;16.98;9.65;;;0.30;99.90;;;;;;5091971;28;20850;-54
2021/03/07 05:28:07;;;;;;;20.42;10.60;;;-1.90;99.90;;;;;;5092354;28;20465;-53
2021/03/07 05:30:33;;;;;;;15.93;8.85;;;-2.00;99.90;;;;;;5091670;28;20474;-54
2021/03/07 05:32:58;;;;;;;17.65;9.18;;;-0.90;99.90;;;;;;5092655;28;20440;-55
2021/03/07 05:35:24;;;;;;;15.07;8.50;;;-2.00;99.90;;;;;;5089072;28;20495;-54
2021/03/07 05:37:50;;;;;;;17.17;8.80;;;0.40;99.90;;;;;;5092167;28;20511;-54
2021/03/07 05:40:17;;;;;;;15.13;8.90;;;-2.00;99.90;;;;;;5092211;28;20393;-54
2021/03/07 05:42:43;;;;;;;16.63;9.70;;;-1.90;99.90;;;;;;5091914;28;20374;-54
2021/03/07 05:45:10;;;;;;;16.58;9.85;;;-1.80;99.90;;;;;;5092214;28;20743;-53
2021/03/07 05:47:36;;;;;;;15.23;9.50;;;-1.80;99.90;;;;;;5091554;28;20777;-53
2021/03/07 05:50:03;;;;;;;17.77;9.73;;;-1.90;99.90;;;;;;5092147;28;20527;-53
2021/03/07 05:52:29;;;;;;;16.33;9.25;;;-1.80;99.90;;;;;;5090456;28;20404;-53
2021/03/07 05:54:56;;;;;;;15.98;9.30;;;-1.70;99.90;;;;;;5091734;28;20404;-53
2021/03/07 05:57:23;;;;;;;17.50;8.90;;;-1.70;99.90;;;;;;5092058;28;20414;-53
2021/03/07 05:59:50;;;;;;;15.15;9.63;;;-1.60;99.90;;;;;;5085488;28;20380;-53
2021/03/07 06:02:16;;;;;;;17.00;9.80;;;-1.70;99.90;;;;;;5080169;28;20786;-53
2021/03/07 06:04:43;;;;;;;16.10;8.77;;;-1.70;99.90;;;;;;5074760;28;20745;-53
2021/03/07 06:07:10;;;;;;;15.27;9.07;;;-0.30;99.90;;;;;;5071490;28;20514;-53
2021/03/07 06:09:36;;;;;;;15.85;8.60;;;-1.80;99.90;;;;;;5070784;28;20444;-53
2021/03/07 06:12:12;;;;;;;14.30;8.30;;;-1.70;99.90;;;;;;5072155;28;20379;-52
2021/03/07 06:14:38;;;;;;;15.70;8.80;;;-1.60;99.90;;;;;;5070586;28;20371;-53
2021/03/07 06:17:05;;;;;;;14.05;8.27;;;-1.50;99.90;;;;;;5071164;28;20950;-53
2021/03/07 06:19:52;;;;;;;22.25;8.73;;;-1.40;99.90;;;;;;5070766;28;20441;-53
2021/03/07 06:22:17;;;;;;;15.98;8.60;;;-1.30;99.90;;;;;;5071115;28;20397;-53
2021/03/07 06:24:43;;;;;;;17.52;8.85;;;-1.10;99.90;;;;;;5070474;28;20722;-53
2021/03/07 06:27:13;;;;;;;16.13;8.50;;;0.90;99.90;;;;;;5071253;28;20427;-52
2021/03/07 06:29:59;;;;;;;15.93;8.40;;;0.40;99.90;;;;;;5065939;28;20921;-54
2021/03/07 06:32:42;;;;;;;14.20;8.10;;;1.20;99.90;;;;;;5071051;28;20873;-54
2021/03/07 06:35:12;;;;;;;15.03;7.90;;;3.90;99.90;;;;;;5071021;28;20425;-54
2021/03/07 06:37:52;;;;;;;13.13;8.10;;;4.60;99.90;;;;;;5070419;28;20482;-55
2021/03/07 06:40:29;;;;;;;13.75;8.20;;;4.10;99.90;;;;;;5083521;28;20459;-54
2021/03/07 06:42:56;;;;;;;13.88;8.80;;;4.40;99.10;;;;;;5091365;28;20386;-54
2021/03/07 06:45:22;;;;;;;14.70;8.48;;;4.80;98.20;;;;;;5091261;28;20390;-54
2021/03/07 06:47:58;;;;;;;13.57;8.57;;;5.20;97.10;;;;;;5090783;28;20461;-54
2021/03/07 06:50:24;;;;;;;14.57;8.07;;;6.00;95.00;;;;;;5090965;28;20374;-55
2021/03/07 06:53:00;;;;;;;15.53;8.83;;;6.80;92.40;;;;;;5090915;28;20393;-55
2021/03/07 06:55:41;;;;;;;15.20;9.00;;;7.50;90.60;;;;;;5055951;28;20424;-54
2021/03/07 06:58:15;;;;;;;15.27;8.93;;;7.80;85.70;;;;;;5082870;28;20383;-55
2021/03/07 07:00:41;;;;;;;13.82;8.77;;;7.80;84.50;;;;;;5085519;28;20921;-54
2021/03/07 07:03:14;;;;;;;17.27;9.57;;;8.30;82.80;;;;;;5089244;28;20432;-55
2021/03/07 07:05:45;;;;;;;15.73;9.18;;;8.70;79.70;;;;;;5087362;28;20382;-55
2021/03/07 07:08:12;;;;;;;14.43;9.60;;;9.50;75.50;;;;;;5089479;28;20429;-55
2021/03/07 07:10:58;;;;;;;15.23;9.70;;;9.90;71.40;;;;;;5089095;28;20431;-54
2021/03/07 07:13:25;;;;;;;14.67;9.10;;;10.40;68.00;;;;;;5087192;28;20394;-54
2021/03/07 07:16:05;;;;;;;15.85;9.15;;;10.90;64.10;;;;;;5089425;28;20763;-54
2021/03/07 07:18:34;;;;;;;15.82;9.63;;;11.20;61.80;;;;;;5088930;28;20394;-55
2021/03/07 07:21:01;;;;;;;15.55;9.95;;;11.80;59.40;;;;;;5089920;28;20818;-54
2021/03/07 07:23:27;;;;;;;13.95;8.65;;;12.20;57.90;;;;;;5090239;28;20370;-54
2021/03/07 07:25:53;;;;;;;12.57;9.00;;;12.10;56.50;;;;;;5088039;28;20398;-54
2021/03/07 07:28:19;;;;;;;15.63;9.40;;;12.10;56.10;;;;;;5089901;28;20381;-54
2021/03/07 07:31:13;;;;;;;15.70;9.30;;;12.10;55.90;;;;;;5066793;28;21115;-54
2021/03/07 07:33:47;;;;;;;14.70;9.27;;;11.80;56.70;;;;;;5089147;28;20458;-54
2021/03/07 07:36:39;;;;;;;14.25;9.98;;;12.20;56.40;;;;;;5088672;28;20545;-54
2021/03/07 07:39:12;;;;;;;13.82;9.38;;;11.90;57.20;;;;;;5071945;28;20451;-54
2021/03/07 07:41:39;;;;;;;14.55;9.10;;;12.30;56.60;;;;;;5087619;28;20390;-54
2021/03/07 07:44:07;;;;;;;14.02;9.68;;;12.80;55.70;;;;;;5089647;28;20919;-54
2021/03/07 07:46:33;;;;;;;13.25;8.45;;;13.60;53.60;;;;;;5088143;28;20394;-55
2021/03/07 07:49:00;;;;;;;12.00;7.95;;;13.60;51.00;;;;;;5089764;28;20420;-54
2021/03/07 07:51:29;;;;;;;12.40;8.32;;;13.40;50.80;;;;;;5089145;28;20394;-54
2021/03/07 07:53:55;;;;;;;11.98;7.82;;;13.70;50.40;;;;;;5088258;28;20855;-54
2021/03/07 07:56:35;;;;;;;11.45;8.10;;;14.10;50.50;;;;;;5089316;28;20410;-54
2021/03/07 07:59:02;;;;;;;11.38;8.20;;;14.70;48.60;;;;;;5090214;28;20386;-54
2021/03/07 08:01:55;;;;;;;11.63;8.40;;;15.30;47.30;;;;;;5087978;28;20402;-54
2021/03/07 08:04:29;;;;;;;14.48;9.45;;;15.70;45.10;;;;;;5076169;28;20512;-55
2021/03/07 08:07:01;;;;;;;13.00;8.50;;;15.80;45.80;;;;;;5069328;28;20449;-54
2021/03/07 08:09:33;;;;;;;14.25;8.77;;;15.80;45.00;;;;;;5069126;28;20430;-55
2021/03/07 08:11:58;;;;;;;12.57;8.05;;;15.80;45.10;;;;;;5069469;28;20387;-54
2021/03/07 08:14:35;;;;;;;12.65;8.07;;;16.10;43.00;;;;;;5069346;28;20475;-54
2021/03/07 08:17:00;;;;;;;14.90;8.33;;;15.60;43.90;;;;;;5069320;28;20495;-55
2021/03/07 08:19:42;;;;;;;13.57;9.45;;;15.60;44.40;;;;;;5069326;28;20537;-54
2021/03/07 08:22:08;;;;;;;11.37;8.13;;;16.10;43.60;;;;;;5069158;28;20403;-54
2021/03/07 08:24:56;;;;;;;11.20;7.50;;;16.30;43.20;;;;;;5068927;28;20368;-55
2021/03/07 08:27:39;;;;;;;12.65;8.80;;;16.50;41.20;;;;;;5069071;28;21058;-54
2021/03/07 08:30:15;;;;;;;11.50;8.23;;;16.40;42.00;;;;;;5069885;28;20375;-54
2021/03/07 08:32:45;;;;;;;11.23;8.00;;;16.50;41.40;;;;;;5068607;28;20436;-55
2021/03/07 08:35:20;;;;;;;13.65;8.30;;;16.50;40.90;;;;;;5069363;28;20379;-56
2021/03/07 08:38:08;;;;;;;14.93;8.70;;;16.30;41.10;;;;;;5068703;28;20391;-55
2021/03/07 08:40:34;;;;;;;13.18;8.70;;;16.80;41.90;;;;;;5068556;28;20463;-54
2021/03/07 08:43:23;;;;;;;12.85;8.52;;;16.60;41.20;;;;;;5068806;28;20387;-55
2021/03/07 08:46:05;;;;;;;13.35;9.13;;;16.90;40.70;;;;;;5068990;28;20372;-54
2021/03/07 08:48:32;;;;;;;13.88;9.30;;;16.60;40.90;;;;;;5068565;28;20475;-54
2021/03/07 08:50:58;;;;;;;12.50;8.80;;;15.90;41.70;;;;;;5069448;28;20456;-55
2021/03/07 08:53:25;;;;;;;11.90;8.57;;;15.90;42.60;;;;;;5068706;28;20923;-55
2021/03/07 08:55:51;;;;;;;12.90;8.57;;;17.30;41.00;;;;;;5068199;28;20420;-54
2021/03/07 08:58:18;;;;;;;13.50;9.05;;;18.10;39.70;;;;;;5069059;28;20460;-56
2021/03/07 09:00:48;;;;;;;12.97;9.30;;;17.70;39.60;;;;;;5068193;28;20891;-54
2021/03/07 09:03:19;;;;;;;12.18;8.98;;;17.60;39.80;;;;;;5074637;28;20915;-54
2021/03/07 09:05:45;;;;;;;12.80;8.80;;;18.60;38.90;;;;;;5092645;28;20443;-54
2021/03/07 09:08:11;;;;;;;14.60;9.70;;;18.80;38.20;;;;;;5092629;28;20473;-54
2021/03/07 09:10:48;;;;;;;14.45;9.73;;;18.40;38.30;;;;;;5091782;28;20461;-54
2021/03/07 09:13:19;;;;;;;14.00;9.50;;;18.50;39.10;;;;;;5092362;28;20385;-54
2021/03/07 09:15:53;;;;;;;15.30;10.03;;;17.70;38.90;;;;;;5092292;28;20459;-54
2021/03/07 09:18:25;;;;;;;14.25;9.38;;;17.70;38.80;;;;;;5074488;28;20855;-55
2021/03/07 09:20:53;;;;;;;14.13;9.70;;;17.60;39.40;;;;;;5074175;28;20385;-54
2021/03/07 09:23:39;;;;;;;14.10;9.70;;;19.00;38.20;;;;;;5092703;28;20398;-54
2021/03/07 09:26:15;;;;;;;14.80;9.73;;;17.70;37.90;;;;;;5092241;28;20398;-54
2021/03/07 09:28:46;;;;;;;14.55;9.90;;;15.50;39.70;;;;;;5091748;28;20420;-54
2021/03/07 09:31:23;;;;;;;15.50;9.40;;;14.50;41.30;;;;;;5074411;28;20386;-54
2021/03/07 09:33:57;;;;;;;14.32;9.10;;;15.20;42.70;;;;;;5091715;28;20378;-54
2021/03/07 09:36:24;;;;;;;14.97;9.50;;;16.80;41.10;;;;;;5092135;28;20513;-53
2021/03/07 09:38:53;;;;;;;13.23;9.35;;;16.40;40.40;;;;;;5091492;28;20507;-55
2021/03/07 09:41:34;;;;;;;14.93;10.00;;;16.10;41.40;;;;;;5092428;28;20386;-55
2021/03/07 09:44:03;;;;;;;15.30;10.00;;;16.60;40.80;;;;;;5092243;28;20390;-55
2021/03/07 09:46:30;;;;;;;14.30;10.40;;;16.20;41.00;;;;;;5091954;28;20386;-55
2021/03/07 09:48:59;;;;;;;16.88;9.98;;;16.00;41.20;;;;;;5092157;28;20396;-54
2021/03/07 09:51:32;;;;;;;13.95;10.20;;;15.60;41.60;;;;;;5092205;28;20469;-55
2021/03/07 09:53:58;;;;;;;15.15;9.98;;;14.90;42.40;;;;;;5074087;28;20393;-55
2021/03/07 09:56:32;;;;;;;17.48;10.50;;;14.60;43.10;;;;;;5091562;28;20425;-55
2021/03/07 09:59:15;;;;;;;15.77;9.95;;;14.00;44.50;;;;;;5092105;28;20390;-55
2021/03/07 10:01:58;;;;;;;15.50;9.82;;;13.10;45.20;;;;;;5090584;28;20390;-54
2021/03/07 10:04:35;;;;;;;13.73;9.05;;;12.80;46.30;;;;;;5089916;28;20480;-55
2021/03/07 10:07:10;;;;;;;15.00;9.70;;;12.10;46.80;;;;;;5090182;28;20394;-55
2021/03/07 10:10:00;;;;;;;15.82;10.50;;;11.40;48.00;;;;;;5083184;28;20374;-54
2021/03/07 10:12:59;;;;;;;13.80;8.90;;;11.30;49.10;;;;;;5090049;28;20749;-53
2021/03/07 10:15:40;;;;;;;16.15;9.93;;;11.30;49.40;;;;;;5090722;28;20516;-54
2021/03/07 10:18:16;;;;;;;15.93;10.18;;;10.90;50.40;;;;;;5090052;28;20393;-54
2021/03/07 10:20:48;;;;;;;17.83;10.20;;;10.50;50.70;;;;;;5089606;28;20394;-55
2021/03/07 10:23:14;;;;;;;15.07;9.63;;;10.40;51.80;;;;;;5091006;28;20424;-54
2021/03/07 10:25:41;;;;;;;16.33;9.90;;;10.40;52.30;;;;;;5088997;28;20401;-54
2021/03/07 10:28:21;;;;;;;15.02;9.60;;;10.50;52.20;;;;;;5091212;28;20421;-54
2021/03/07 10:30:47;;;;;;;16.00;10.10;;;10.20;52.90;;;;;;5088627;28;20412;-55
2021/03/07 10:33:25;;;;;;;15.03;9.63;;;10.50;52.90;;;;;;5090475;28;20374;-55
2021/03/07 10:36:04;;;;;;;16.90;9.80;;;10.50;52.90;;;;;;5089155;28;20410;-54
2021/03/07 10:39:00;;;;;;;18.98;10.00;;;10.60;53.00;;;;;;5071413;28;20451;-55
2021/03/07 10:41:30;;;;;;;15.88;10.30;;;10.50;53.00;;;;;;5088949;28;20994;-55
2021/03/07 10:43:58;;;;;;;14.52;9.30;;;10.60;53.30;;;;;;5089127;28;20921;-55
2021/03/07 10:46:34;;;;;;;16.98;10.43;;;10.70;53.00;;;;;;5090774;28;20378;-54
2021/03/07 10:49:05;;;;;;;15.17;10.00;;;11.10;52.70;;;;;;5090223;28;20414;-54
2021/03/07 10:51:32;;;;;;;17.70;10.20;;;11.70;51.90;;;;;;5089473;28;20386;-55
2021/03/07 10:53:58;;;;;;;16.85;9.80;;;11.70;51.50;;;;;;5090793;28;20533;-54
2021/03/07 10:56:31;;;;;;;15.98;9.73;;;11.50;51.60;;;;;;5090619;28;20448;-54
2021/03/07 10:58:57;;;;;;;15.48;9.15;;;11.50;52.10;;;;;;5090459;28;20383;-54
2021/03/07 11:01:23;;;;;;;14.70;9.25;;;11.70;52.30;;;;;;5090710;28;20400;-54
2021/03/07 11:03:49;;;;;;;15.90;9.30;;;12.10;50.80;;;;;;5080140;28;20414;-54
2021/03/07 11:06:19;;;;;;;14.10;9.13;;;11.90;51.80;;;;;;5069907;28;20384;-54
2021/03/07 11:08:46;;;;;;;13.93;9.40;;;13.00;50.80;;;;;;5069552;28;20737;-54
2021/03/07 11:11:11;;;;;;;15.43;9.70;;;12.80;49.10;;;;;;5070327;28;20735;-54
2021/03/07 11:13:37;;;;;;;14.03;9.40;;;12.70;49.10;;;;;;5069650;28;20394;-54
2021/03/07 11:16:03;;;;;;;13.70;8.90;;;12.60;49.70;;;;;;5069890;28;20407;-54
2021/03/07 11:18:29;;;;;;;14.32;8.95;;;12.50;49.50;;;;;;5070172;28;20441;-54
2021/03/07 11:20:55;;;;;;;16.23;8.77;;;12.10;49.60;;;;;;5069411;28;20423;-54
2021/03/07 11:23:21;;;;;;;16.45;9.20;;;11.50;50.50;;;;;;5069519;28;20396;-55
2021/03/07 11:25:47;;;;;;;14.25;9.00;;;11.80;50.80;;;;;;5069016;28;20406;-54
2021/03/07 11:28:13;;;;;;;15.07;9.43;;;12.40;50.30;;;;;;5069989;28;20403;-54
2021/03/07 11:30:39;;;;;;;13.67;8.83;;;12.80;49.50;;;;;;5068507;28;20395;-54
2021/03/07 11:33:05;;;;;;;15.68;9.60;;;12.80;49.30;;;;;;5069716;28;20800;-53
2021/03/07 11:35:31;;;;;;;15.07;9.75;;;12.80;48.60;;;;;;5070002;28;20432;-54
2021/03/07 11:37:58;;;;;;;15.00;8.93;;;12.30;49.90;;;;;;5069535;28;20380;-54
2021/03/07 11:40:24;;;;;;;14.75;9.45;;;12.30;50.00;;;;;;5070091;28;20989;-54
2021/03/07 11:42:49;;;;;;;15.57;9.30;;;12.60;49.60;;;;;;5068901;28;20397;-54
2021/03/07 11:45:16;;;;;;;15.90;9.40;;;12.50;49.30;;;;;;5069674;28;20378;-54
2021/03/07 11:47:42;;;;;;;15.63;9.02;;;12.10;49.70;;;;;;5068790;28;20520;-54
2021/03/07 11:50:09;;;;;;;14.23;9.20;;;11.10;50.70;;;;;;5069662;28;20399;-54
2021/03/07 11:52:34;;;;;;;13.13;8.80;;;11.10;50.90;;;;;;5069054;28;20384;-54
2021/03/07 11:55:00;;;;;;;14.23;9.37;;;11.20;50.90;;;;;;5068842;28;20856;-54
2021/03/07 11:57:26;;;;;;;14.65;9.02;;;11.30;51.80;;;;;;5069491;28;20407;-54
2021/03/07 11:59:52;;;;;;;14.77;8.40;;;11.30;51.00;;;;;;5068623;28;20893;-54
2021/03/07 12:02:17;;;;;;;17.80;8.80;;;11.40;51.40;;;;;;5069282;28;20380;-54
2021/03/07 12:04:43;;;;;;;14.85;9.50;;;11.80;51.30;;;;;;5085287;28;20390;-54
2021/03/07 12:07:09;;;;;;;16.10;9.60;;;11.70;50.70;;;;;;5089569;28;20407;-54
2021/03/07 12:09:35;;;;;;;15.43;9.23;;;11.40;51.30;;;;;;5089071;28;20849;-54
2021/03/07 12:12:00;;;;;;;16.80;9.27;;;11.00;51.60;;;;;;5088230;28;20404;-54
2021/03/07 12:14:27;;;;;;;15.80;9.20;;;11.20;51.70;;;;;;5089472;28;20478;-54
2021/03/07 12:16:54;;;;;;;13.23;8.48;;;11.50;51.50;;;;;;5088453;28;20990;-54
2021/03/07 12:19:20;;;;;;;15.10;8.90;;;11.60;50.90;;;;;;5071382;28;20388;-54
2021/03/07 12:21:46;;;;;;;14.63;8.70;;;11.50;51.40;;;;;;5088704;28;20374;-54
2021/03/07 12:24:12;;;;;;;14.48;9.40;;;11.40;51.60;;;;;;5089560;28;20782;-54
2021/03/07 12:26:37;;;;;;;14.23;9.23;;;11.40;52.00;;;;;;5088551;28;20487;-55
2021/03/07 12:29:04;;;;;;;16.52;9.07;;;11.60;52.00;;;;;;5089364;28;20393;-54
2021/03/07 12:31:30;;;;;;;14.68;8.40;;;11.60;51.60;;;;;;5089425;28;20514;-54
2021/03/07 12:33:55;;;;;;;14.40;8.70;;;11.20;52.30;;;;;;5088660;28;20549;-54
2021/03/07 12:36:21;;;;;;;14.57;9.00;;;11.30;52.50;;;;;;5089125;28;20499;-54
2021/03/07 12:38:47;;;;;;;15.87;9.50;;;11.40;52.60;;;;;;5090729;28;20965;-54
2021/03/07 12:41:12;;;;;;;14.35;9.68;;;11.00;52.90;;;;;;5093516;28;20389;-54
2021/03/07 12:43:38;;;;;;;14.73;9.48;;;11.10;53.20;;;;;;5092447;28;20464;-54
2021/03/07 12:46:04;;;;;;;17.17;9.63;;;11.30;52.40;;;;;;5093411;28;20414;-54